sensor_id;sensor_type;location;lat;lon;timestamp;P1;durP1;ratioP1;P2;durP2;ratioP2
12577;SDS011;6354;51.026;8.968;2022-08-25T00:01:27;6.22;;;4.47;;
12577;SDS011;6354;51.026;8.968;2022-08-25T00:03:57;9.77;;;4.38;;
12577;SDS011;6354;51.026;8.968;2022-08-25T00:06:28;5.78;;;4.20;;
12577;SDS011;6354;51.026;8.968;2022-08-25T00:08:58;8.18;;;4.55;;
12577;SDS011;6354;51.026;8.968;2022-08-25T00:11:27;7.25;;;4.60;;
12577;SDS011;6354;51.026;8.968;2022-08-25T00:13:58;4.68;;;4.13;;
12577;SDS011;6354;51.026;8.968;2022-08-25T00:16:28;5.75;;;4.50;;
12577;SDS011;6354;51.026;8.968;2022-08-25T00:18:58;5.18;;;4.10;;
12577;SDS011;6354;51.026;8.968;2022-08-25T00:21:31;8.00;;;5.00;;
12577;SDS011;6354;51.026;8.968;2022-08-25T00:24:01;7.10;;;4.35;;
12577;SDS011;6354;51.026;8.968;2022-08-25T00:26:29;7.72;;;5.05;;
12577;SDS011;6354;51.026;8.968;2022-08-25T00:28:57;5.32;;;4.75;;
12577;SDS011;6354;51.026;8.968;2022-08-25T00:31:27;8.32;;;4.90;;
12577;SDS011;6354;51.026;8.968;2022-08-25T00:34:05;8.30;;;4.70;;
12577;SDS011;6354;51.026;8.968;2022-08-25T00:36:35;6.40;;;4.90;;
12577;SDS011;6354;51.026;8.968;2022-08-25T00:39:06;9.55;;;5.20;;
12577;SDS011;6354;51.026;8.968;2022-08-25T00:41:35;7.20;;;4.30;;
12577;SDS011;6354;51.026;8.968;2022-08-25T00:44:05;6.22;;;4.68;;
12577;SDS011;6354;51.026;8.968;2022-08-25T00:46:36;6.07;;;5.03;;
12577;SDS011;6354;51.026;8.968;2022-08-25T00:49:08;6.63;;;4.90;;
12577;SDS011;6354;51.026;8.968;2022-08-25T00:51:51;6.35;;;4.97;;
12577;SDS011;6354;51.026;8.968;2022-08-25T00:54:23;8.80;;;4.90;;
12577;SDS011;6354;51.026;8.968;2022-08-25T00:56:54;7.97;;;5.13;;
12577;SDS011;6354;51.026;8.968;2022-08-25T00:59:23;5.25;;;4.40;;
12577;SDS011;6354;51.026;8.968;2022-08-25T01:01:52;7.45;;;5.03;;
12577;SDS011;6354;51.026;8.968;2022-08-25T01:04:21;7.78;;;5.35;;
12577;SDS011;6354;51.026;8.968;2022-08-25T01:06:50;5.93;;;5.10;;
12577;SDS011;6354;51.026;8.968;2022-08-25T01:09:19;7.72;;;5.55;;
12577;SDS011;6354;51.026;8.968;2022-08-25T01:11:49;9.38;;;5.28;;
12577;SDS011;6354;51.026;8.968;2022-08-25T01:14:17;6.50;;;5.25;;
12577;SDS011;6354;51.026;8.968;2022-08-25T01:16:47;8.57;;;4.97;;
12577;SDS011;6354;51.026;8.968;2022-08-25T01:19:19;6.47;;;5.43;;
12577;SDS011;6354;51.026;8.968;2022-08-25T01:21:50;6.50;;;5.28;;
12577;SDS011;6354;51.026;8.968;2022-08-25T01:24:21;7.53;;;5.80;;
12577;SDS011;6354;51.026;8.968;2022-08-25T01:26:52;7.32;;;5.28;;
12577;SDS011;6354;51.026;8.968;2022-08-25T01:29:20;6.38;;;5.78;;
12577;SDS011;6354;51.026;8.968;2022-08-25T01:31:52;6.95;;;5.50;;
12577;SDS011;6354;51.026;8.968;2022-08-25T01:34:23;9.88;;;5.85;;
12577;SDS011;6354;51.026;8.968;2022-08-25T01:36:53;6.72;;;5.95;;
12577;SDS011;6354;51.026;8.968;2022-08-25T01:39:23;8.63;;;6.03;;
12577;SDS011;6354;51.026;8.968;2022-08-25T01:42:03;7.18;;;5.57;;
12577;SDS011;6354;51.026;8.968;2022-08-25T01:44:49;11.30;;;6.00;;
12577;SDS011;6354;51.026;8.968;2022-08-25T01:47:17;7.93;;;5.70;;
12577;SDS011;6354;51.026;8.968;2022-08-25T01:49:46;7.60;;;5.75;;
12577;SDS011;6354;51.026;8.968;2022-08-25T01:52:18;6.43;;;5.82;;
12577;SDS011;6354;51.026;8.968;2022-08-25T01:54:49;6.07;;;5.35;;
12577;SDS011;6354;51.026;8.968;2022-08-25T01:57:18;10.32;;;6.10;;
12577;SDS011;6354;51.026;8.968;2022-08-25T01:59:47;7.95;;;5.65;;
12577;SDS011;6354;51.026;8.968;2022-08-25T02:02:15;7.50;;;6.10;;
12577;SDS011;6354;51.026;8.968;2022-08-25T02:04:43;11.07;;;6.43;;
12577;SDS011;6354;51.026;8.968;2022-08-25T02:07:13;6.75;;;6.10;;
12577;SDS011;6354;51.026;8.968;2022-08-25T02:09:42;8.02;;;6.22;;
12577;SDS011;6354;51.026;8.968;2022-08-25T02:12:10;8.13;;;6.45;;
12577;SDS011;6354;51.026;8.968;2022-08-25T02:14:39;7.60;;;6.55;;
12577;SDS011;6354;51.026;8.968;2022-08-25T02:17:07;7.50;;;6.75;;
12577;SDS011;6354;51.026;8.968;2022-08-25T02:19:36;8.85;;;6.45;;
12577;SDS011;6354;51.026;8.968;2022-08-25T02:22:04;8.05;;;7.25;;
12577;SDS011;6354;51.026;8.968;2022-08-25T02:24:33;8.68;;;6.90;;
12577;SDS011;6354;51.026;8.968;2022-08-25T02:27:02;8.85;;;7.03;;
12577;SDS011;6354;51.026;8.968;2022-08-25T02:29:31;8.63;;;6.55;;
12577;SDS011;6354;51.026;8.968;2022-08-25T02:31:59;9.38;;;7.07;;
12577;SDS011;6354;51.026;8.968;2022-08-25T02:34:27;8.60;;;7.47;;
12577;SDS011;6354;51.026;8.968;2022-08-25T02:36:55;8.20;;;7.40;;
12577;SDS011;6354;51.026;8.968;2022-08-25T02:39:23;10.75;;;7.25;;
12577;SDS011;6354;51.026;8.968;2022-08-25T02:41:51;9.95;;;7.00;;
12577;SDS011;6354;51.026;8.968;2022-08-25T02:44:21;10.90;;;7.85;;
12577;SDS011;6354;51.026;8.968;2022-08-25T02:46:49;7.85;;;7.03;;
12577;SDS011;6354;51.026;8.968;2022-08-25T02:49:17;9.10;;;7.57;;
12577;SDS011;6354;51.026;8.968;2022-08-25T02:51:45;7.95;;;6.75;;
12577;SDS011;6354;51.026;8.968;2022-08-25T02:54:13;10.07;;;7.20;;
12577;SDS011;6354;51.026;8.968;2022-08-25T02:56:41;7.78;;;7.05;;
12577;SDS011;6354;51.026;8.968;2022-08-25T02:59:09;7.22;;;6.47;;
12577;SDS011;6354;51.026;8.968;2022-08-25T03:01:39;7.68;;;6.88;;
12577;SDS011;6354;51.026;8.968;2022-08-25T03:04:07;7.88;;;6.90;;
12577;SDS011;6354;51.026;8.968;2022-08-25T03:06:35;11.88;;;7.70;;
12577;SDS011;6354;51.026;8.968;2022-08-25T03:09:03;8.65;;;7.32;;
12577;SDS011;6354;51.026;8.968;2022-08-25T03:11:31;7.60;;;6.90;;
12577;SDS011;6354;51.026;8.968;2022-08-25T03:14:01;8.18;;;7.35;;
12577;SDS011;6354;51.026;8.968;2022-08-25T03:16:29;7.30;;;6.63;;
12577;SDS011;6354;51.026;8.968;2022-08-25T03:18:59;7.93;;;7.13;;
12577;SDS011;6354;51.026;8.968;2022-08-25T03:21:28;7.75;;;6.95;;
12577;SDS011;6354;51.026;8.968;2022-08-25T03:23:56;10.27;;;7.60;;
12577;SDS011;6354;51.026;8.968;2022-08-25T03:26:25;9.45;;;7.47;;
12577;SDS011;6354;51.026;8.968;2022-08-25T03:29:10;8.43;;;7.10;;
12577;SDS011;6354;51.026;8.968;2022-08-25T03:31:39;8.07;;;7.28;;
12577;SDS011;6354;51.026;8.968;2022-08-25T03:34:11;9.77;;;7.05;;
12577;SDS011;6354;51.026;8.968;2022-08-25T03:36:39;8.23;;;7.43;;
12577;SDS011;6354;51.026;8.968;2022-08-25T03:39:07;9.98;;;8.25;;
12577;SDS011;6354;51.026;8.968;2022-08-25T03:41:36;8.75;;;7.60;;
12577;SDS011;6354;51.026;8.968;2022-08-25T03:44:05;10.30;;;7.82;;
12577;SDS011;6354;51.026;8.968;2022-08-25T03:46:36;8.73;;;7.82;;
12577;SDS011;6354;51.026;8.968;2022-08-25T03:49:07;10.68;;;7.82;;
12577;SDS011;6354;51.026;8.968;2022-08-25T03:51:42;8.73;;;7.22;;
12577;SDS011;6354;51.026;8.968;2022-08-25T03:54:12;9.20;;;7.35;;
12577;SDS011;6354;51.026;8.968;2022-08-25T03:56:41;7.80;;;7.07;;
12577;SDS011;6354;51.026;8.968;2022-08-25T03:59:10;9.32;;;7.60;;
12577;SDS011;6354;51.026;8.968;2022-08-25T04:01:39;10.43;;;8.07;;
12577;SDS011;6354;51.026;8.968;2022-08-25T04:04:09;11.63;;;7.32;;
12577;SDS011;6354;51.026;8.968;2022-08-25T04:06:38;9.40;;;7.70;;
12577;SDS011;6354;51.026;8.968;2022-08-25T04:09:08;8.38;;;7.57;;
12577;SDS011;6354;51.026;8.968;2022-08-25T04:11:37;8.57;;;7.68;;
12577;SDS011;6354;51.026;8.968;2022-08-25T04:14:07;10.50;;;7.88;;
12577;SDS011;6354;51.026;8.968;2022-08-25T04:16:42;10.20;;;8.15;;
12577;SDS011;6354;51.026;8.968;2022-08-25T04:19:10;8.80;;;7.90;;
12577;SDS011;6354;51.026;8.968;2022-08-25T04:21:38;9.52;;;8.43;;
12577;SDS011;6354;51.026;8.968;2022-08-25T04:24:09;11.25;;;8.95;;
12577;SDS011;6354;51.026;8.968;2022-08-25T04:26:38;10.50;;;8.90;;
12577;SDS011;6354;51.026;8.968;2022-08-25T04:29:09;12.25;;;9.07;;
12577;SDS011;6354;51.026;8.968;2022-08-25T04:31:38;10.60;;;9.45;;
12577;SDS011;6354;51.026;8.968;2022-08-25T04:34:07;10.75;;;9.07;;
12577;SDS011;6354;51.026;8.968;2022-08-25T04:36:56;10.65;;;8.52;;
12577;SDS011;6354;51.026;8.968;2022-08-25T04:39:26;9.57;;;8.48;;
12577;SDS011;6354;51.026;8.968;2022-08-25T04:41:54;9.07;;;8.27;;
12577;SDS011;6354;51.026;8.968;2022-08-25T04:44:23;10.98;;;9.30;;
12577;SDS011;6354;51.026;8.968;2022-08-25T04:46:51;9.57;;;8.63;;
12577;SDS011;6354;51.026;8.968;2022-08-25T04:49:19;11.23;;;8.65;;
12577;SDS011;6354;51.026;8.968;2022-08-25T04:51:47;11.50;;;8.43;;
12577;SDS011;6354;51.026;8.968;2022-08-25T04:54:15;9.30;;;8.30;;
12577;SDS011;6354;51.026;8.968;2022-08-25T04:56:48;11.65;;;8.27;;
12577;SDS011;6354;51.026;8.968;2022-08-25T04:59:19;9.35;;;8.38;;
12577;SDS011;6354;51.026;8.968;2022-08-25T05:01:47;8.82;;;7.93;;
12577;SDS011;6354;51.026;8.968;2022-08-25T05:04:21;8.57;;;7.75;;
12577;SDS011;6354;51.026;8.968;2022-08-25T05:06:53;8.45;;;7.60;;
12577;SDS011;6354;51.026;8.968;2022-08-25T05:09:21;9.55;;;7.25;;
12577;SDS011;6354;51.026;8.968;2022-08-25T05:11:51;12.23;;;8.00;;
12577;SDS011;6354;51.026;8.968;2022-08-25T05:14:20;8.90;;;8.00;;
12577;SDS011;6354;51.026;8.968;2022-08-25T05:16:51;9.00;;;7.20;;
12577;SDS011;6354;51.026;8.968;2022-08-25T05:19:20;8.48;;;7.00;;
12577;SDS011;6354;51.026;8.968;2022-08-25T05:21:49;8.48;;;7.45;;
12577;SDS011;6354;51.026;8.968;2022-08-25T05:24:17;9.82;;;7.68;;
12577;SDS011;6354;51.026;8.968;2022-08-25T05:26:47;9.00;;;7.55;;
12577;SDS011;6354;51.026;8.968;2022-08-25T05:29:16;11.32;;;8.80;;
12577;SDS011;6354;51.026;8.968;2022-08-25T05:31:44;9.30;;;8.32;;
12577;SDS011;6354;51.026;8.968;2022-08-25T05:34:16;9.75;;;8.88;;
12577;SDS011;6354;51.026;8.968;2022-08-25T05:36:45;9.57;;;8.10;;
12577;SDS011;6354;51.026;8.968;2022-08-25T05:39:13;10.00;;;8.55;;
12577;SDS011;6354;51.026;8.968;2022-08-25T05:41:41;12.63;;;9.32;;
12577;SDS011;6354;51.026;8.968;2022-08-25T05:44:09;10.07;;;8.90;;
12577;SDS011;6354;51.026;8.968;2022-08-25T05:46:39;9.98;;;8.95;;
12577;SDS011;6354;51.026;8.968;2022-08-25T05:49:07;10.25;;;8.38;;
12577;SDS011;6354;51.026;8.968;2022-08-25T05:51:35;10.77;;;8.65;;
12577;SDS011;6354;51.026;8.968;2022-08-25T05:54:03;9.60;;;8.60;;
12577;SDS011;6354;51.026;8.968;2022-08-25T05:56:31;10.88;;;8.93;;
12577;SDS011;6354;51.026;8.968;2022-08-25T05:59:00;12.43;;;8.80;;
12577;SDS011;6354;51.026;8.968;2022-08-25T06:01:34;9.88;;;8.48;;
12577;SDS011;6354;51.026;8.968;2022-08-25T06:04:21;11.73;;;8.70;;
12577;SDS011;6354;51.026;8.968;2022-08-25T06:06:49;10.60;;;8.85;;
12577;SDS011;6354;51.026;8.968;2022-08-25T06:09:19;13.68;;;8.75;;
12577;SDS011;6354;51.026;8.968;2022-08-25T06:11:47;11.55;;;8.60;;
12577;SDS011;6354;51.026;8.968;2022-08-25T06:14:20;14.70;;;8.77;;
12577;SDS011;6354;51.026;8.968;2022-08-25T06:16:49;11.45;;;9.18;;
12577;SDS011;6354;51.026;8.968;2022-08-25T06:19:17;10.05;;;9.05;;
12577;SDS011;6354;51.026;8.968;2022-08-25T06:21:48;9.93;;;8.60;;
12577;SDS011;6354;51.026;8.968;2022-08-25T06:24:19;12.10;;;8.05;;
12577;SDS011;6354;51.026;8.968;2022-08-25T06:26:47;8.70;;;7.90;;
12577;SDS011;6354;51.026;8.968;2022-08-25T06:29:15;9.15;;;8.32;;
12577;SDS011;6354;51.026;8.968;2022-08-25T06:31:43;10.68;;;8.30;;
12577;SDS011;6354;51.026;8.968;2022-08-25T06:34:11;10.90;;;7.50;;
12577;SDS011;6354;51.026;8.968;2022-08-25T06:36:40;9.30;;;7.47;;
12577;SDS011;6354;51.026;8.968;2022-08-25T06:39:15;8.70;;;7.78;;
12577;SDS011;6354;51.026;8.968;2022-08-25T06:41:43;10.60;;;7.30;;
12577;SDS011;6354;51.026;8.968;2022-08-25T06:44:11;9.15;;;7.10;;
12577;SDS011;6354;51.026;8.968;2022-08-25T06:46:39;7.70;;;6.95;;
12577;SDS011;6354;51.026;8.968;2022-08-25T06:49:07;7.63;;;6.82;;
12577;SDS011;6354;51.026;8.968;2022-08-25T06:51:36;7.68;;;6.57;;
12577;SDS011;6354;51.026;8.968;2022-08-25T06:54:05;7.60;;;6.88;;
12577;SDS011;6354;51.026;8.968;2022-08-25T06:56:37;9.35;;;7.13;;
12577;SDS011;6354;51.026;8.968;2022-08-25T06:59:07;11.98;;;7.07;;
12577;SDS011;6354;51.026;8.968;2022-08-25T07:01:35;8.13;;;6.45;;
12577;SDS011;6354;51.026;8.968;2022-08-25T07:04:04;9.70;;;6.65;;
12577;SDS011;6354;51.026;8.968;2022-08-25T07:06:38;9.48;;;6.95;;
12577;SDS011;6354;51.026;8.968;2022-08-25T07:09:07;12.50;;;7.93;;
12577;SDS011;6354;51.026;8.968;2022-08-25T07:11:38;9.30;;;6.93;;
12577;SDS011;6354;51.026;8.968;2022-08-25T07:14:07;8.27;;;7.43;;
12577;SDS011;6354;51.026;8.968;2022-08-25T07:16:37;7.70;;;6.90;;
12577;SDS011;6354;51.026;8.968;2022-08-25T07:19:09;8.55;;;7.55;;
12577;SDS011;6354;51.026;8.968;2022-08-25T07:21:40;9.07;;;7.55;;
12577;SDS011;6354;51.026;8.968;2022-08-25T07:24:11;7.88;;;7.03;;
12577;SDS011;6354;51.026;8.968;2022-08-25T07:26:42;10.88;;;8.27;;
12577;SDS011;6354;51.026;8.968;2022-08-25T07:29:12;8.13;;;7.32;;
12577;SDS011;6354;51.026;8.968;2022-08-25T07:31:42;9.95;;;7.88;;
12577;SDS011;6354;51.026;8.968;2022-08-25T07:34:11;11.18;;;8.00;;
12577;SDS011;6354;51.026;8.968;2022-08-25T07:36:57;9.55;;;8.05;;
12577;SDS011;6354;51.026;8.968;2022-08-25T07:39:25;9.27;;;7.60;;
12577;SDS011;6354;51.026;8.968;2022-08-25T07:41:55;9.95;;;7.88;;
12577;SDS011;6354;51.026;8.968;2022-08-25T07:44:25;9.23;;;8.30;;
12577;SDS011;6354;51.026;8.968;2022-08-25T07:46:54;10.38;;;8.25;;
12577;SDS011;6354;51.026;8.968;2022-08-25T07:49:23;10.60;;;8.95;;
12577;SDS011;6354;51.026;8.968;2022-08-25T07:52:05;9.60;;;8.63;;
12577;SDS011;6354;51.026;8.968;2022-08-25T07:54:34;10.85;;;8.75;;
12577;SDS011;6354;51.026;8.968;2022-08-25T07:57:06;9.93;;;9.00;;
12577;SDS011;6354;51.026;8.968;2022-08-25T07:59:38;11.20;;;8.70;;
12577;SDS011;6354;51.026;8.968;2022-08-25T08:02:07;11.18;;;9.23;;
12577;SDS011;6354;51.026;8.968;2022-08-25T08:04:44;10.32;;;9.25;;
12577;SDS011;6354;51.026;8.968;2022-08-25T08:07:15;12.50;;;9.80;;
12577;SDS011;6354;51.026;8.968;2022-08-25T08:09:45;10.60;;;9.18;;
12577;SDS011;6354;51.026;8.968;2022-08-25T08:12:26;10.98;;;9.75;;
12577;SDS011;6354;51.026;8.968;2022-08-25T08:14:56;10.50;;;9.40;;
12577;SDS011;6354;51.026;8.968;2022-08-25T08:17:25;10.82;;;9.50;;
12577;SDS011;6354;51.026;8.968;2022-08-25T08:19:53;12.75;;;9.75;;
12577;SDS011;6354;51.026;8.968;2022-08-25T08:22:21;10.35;;;9.32;;
12577;SDS011;6354;51.026;8.968;2022-08-25T08:24:50;10.77;;;9.68;;
12577;SDS011;6354;51.026;8.968;2022-08-25T08:27:21;10.68;;;9.40;;
12577;SDS011;6354;51.026;8.968;2022-08-25T08:29:51;10.13;;;8.40;;
12577;SDS011;6354;51.026;8.968;2022-08-25T08:32:20;12.25;;;9.60;;
12577;SDS011;6354;51.026;8.968;2022-08-25T08:35:06;10.90;;;8.60;;
12577;SDS011;6354;51.026;8.968;2022-08-25T08:37:34;10.95;;;9.02;;
12577;SDS011;6354;51.026;8.968;2022-08-25T08:40:08;13.38;;;9.60;;
12577;SDS011;6354;51.026;8.968;2022-08-25T08:42:43;13.48;;;9.65;;
12577;SDS011;6354;51.026;8.968;2022-08-25T08:45:31;9.82;;;8.77;;
12577;SDS011;6354;51.026;8.968;2022-08-25T08:48:25;13.00;;;10.05;;
12577;SDS011;6354;51.026;8.968;2022-08-25T08:51:10;14.07;;;9.30;;
12577;SDS011;6354;51.026;8.968;2022-08-25T08:53:45;9.98;;;8.90;;
12577;SDS011;6354;51.026;8.968;2022-08-25T08:56:18;10.82;;;8.60;;
12577;SDS011;6354;51.026;8.968;2022-08-25T08:58:57;12.30;;;8.82;;
12577;SDS011;6354;51.026;8.968;2022-08-25T09:01:33;13.10;;;9.77;;
12577;SDS011;6354;51.026;8.968;2022-08-25T09:04:12;12.13;;;9.70;;
12577;SDS011;6354;51.026;8.968;2022-08-25T09:06:45;10.43;;;8.93;;
12577;SDS011;6354;51.026;8.968;2022-08-25T09:09:15;11.30;;;8.80;;
12577;SDS011;6354;51.026;8.968;2022-08-25T09:11:53;12.32;;;9.07;;
12577;SDS011;6354;51.026;8.968;2022-08-25T09:14:36;12.65;;;8.50;;
12577;SDS011;6354;51.026;8.968;2022-08-25T09:17:23;13.35;;;8.98;;
12577;SDS011;6354;51.026;8.968;2022-08-25T09:20:07;12.07;;;9.32;;
12577;SDS011;6354;51.026;8.968;2022-08-25T09:22:47;10.77;;;9.40;;
12577;SDS011;6354;51.026;8.968;2022-08-25T09:25:21;12.27;;;8.70;;
12577;SDS011;6354;51.026;8.968;2022-08-25T09:28:17;11.40;;;8.60;;
12577;SDS011;6354;51.026;8.968;2022-08-25T09:30:49;9.50;;;8.50;;
12577;SDS011;6354;51.026;8.968;2022-08-25T09:33:24;9.52;;;8.52;;
12577;SDS011;6354;51.026;8.968;2022-08-25T09:35:54;8.90;;;7.78;;
12577;SDS011;6354;51.026;8.968;2022-08-25T09:38:23;13.20;;;8.73;;
12577;SDS011;6354;51.026;8.968;2022-08-25T09:40:53;8.80;;;7.90;;
12577;SDS011;6354;51.026;8.968;2022-08-25T09:43:22;10.00;;;8.10;;
12577;SDS011;6354;51.026;8.968;2022-08-25T09:45:58;9.55;;;8.45;;
12577;SDS011;6354;51.026;8.968;2022-08-25T09:48:29;10.85;;;8.75;;
12577;SDS011;6354;51.026;8.968;2022-08-25T09:51:09;9.38;;;8.45;;
12577;SDS011;6354;51.026;8.968;2022-08-25T09:53:47;8.90;;;7.38;;
12577;SDS011;6354;51.026;8.968;2022-08-25T09:56:20;9.20;;;7.13;;
12577;SDS011;6354;51.026;8.968;2022-08-25T09:58:51;11.70;;;8.18;;
12577;SDS011;6354;51.026;8.968;2022-08-25T10:01:20;8.43;;;7.63;;
12577;SDS011;6354;51.026;8.968;2022-08-25T10:06:44;8.88;;;7.32;;
12577;SDS011;6354;51.026;8.968;2022-08-25T10:09:21;9.27;;;7.57;;
12577;SDS011;6354;51.026;8.968;2022-08-25T10:11:55;11.93;;;8.07;;
12577;SDS011;6354;51.026;8.968;2022-08-25T10:14:27;8.50;;;7.68;;
12577;SDS011;6354;51.026;8.968;2022-08-25T10:17:13;11.27;;;8.70;;
12577;SDS011;6354;51.026;8.968;2022-08-25T10:19:54;9.38;;;8.48;;
12577;SDS011;6354;51.026;8.968;2022-08-25T10:22:42;13.45;;;8.32;;
12577;SDS011;6354;51.026;8.968;2022-08-25T10:25:16;9.25;;;8.20;;
12577;SDS011;6354;51.026;8.968;2022-08-25T10:27:49;9.90;;;7.85;;
12577;SDS011;6354;51.026;8.968;2022-08-25T10:30:33;9.98;;;8.43;;
12577;SDS011;6354;51.026;8.968;2022-08-25T10:33:12;11.02;;;8.55;;
12577;SDS011;6354;51.026;8.968;2022-08-25T10:35:50;10.35;;;8.90;;
12577;SDS011;6354;51.026;8.968;2022-08-25T10:38:30;10.68;;;8.75;;
12577;SDS011;6354;51.026;8.968;2022-08-25T10:41:06;10.32;;;8.60;;
12577;SDS011;6354;51.026;8.968;2022-08-25T10:43:57;9.93;;;8.60;;
12577;SDS011;6354;51.026;8.968;2022-08-25T10:46:59;10.30;;;8.23;;
12577;SDS011;6354;51.026;8.968;2022-08-25T10:49:54;10.65;;;8.38;;
12577;SDS011;6354;51.026;8.968;2022-08-25T10:52:33;17.08;;;7.93;;
12577;SDS011;6354;51.026;8.968;2022-08-25T10:55:06;10.35;;;8.45;;
12577;SDS011;6354;51.026;8.968;2022-08-25T10:57:44;9.10;;;7.75;;
12577;SDS011;6354;51.026;8.968;2022-08-25T11:00:22;8.95;;;7.28;;
12577;SDS011;6354;51.026;8.968;2022-08-25T11:03:06;10.00;;;7.45;;
12577;SDS011;6354;51.026;8.968;2022-08-25T11:05:51;7.80;;;7.10;;
12577;SDS011;6354;51.026;8.968;2022-08-25T11:08:31;10.23;;;7.93;;
12577;SDS011;6354;51.026;8.968;2022-08-25T11:11:04;8.35;;;7.45;;
12577;SDS011;6354;51.026;8.968;2022-08-25T11:13:41;8.85;;;7.13;;
12577;SDS011;6354;51.026;8.968;2022-08-25T11:16:14;10.02;;;7.78;;
12577;SDS011;6354;51.026;8.968;2022-08-25T11:18:49;11.32;;;7.90;;
12577;SDS011;6354;51.026;8.968;2022-08-25T11:21:22;8.63;;;7.20;;
12577;SDS011;6354;51.026;8.968;2022-08-25T11:24:02;8.32;;;6.75;;
12577;SDS011;6354;51.026;8.968;2022-08-25T11:26:34;8.60;;;7.53;;
12577;SDS011;6354;51.026;8.968;2022-08-25T11:29:08;9.02;;;7.32;;
12577;SDS011;6354;51.026;8.968;2022-08-25T11:31:42;9.30;;;7.18;;
12577;SDS011;6354;51.026;8.968;2022-08-25T11:34:19;8.10;;;7.30;;
12577;SDS011;6354;51.026;8.968;2022-08-25T11:36:49;10.00;;;7.43;;
12577;SDS011;6354;51.026;8.968;2022-08-25T11:39:25;8.75;;;6.82;;
12577;SDS011;6354;51.026;8.968;2022-08-25T11:42:07;10.63;;;7.28;;
12577;SDS011;6354;51.026;8.968;2022-08-25T11:44:50;11.32;;;7.13;;
12577;SDS011;6354;51.026;8.968;2022-08-25T11:47:29;9.13;;;6.78;;
12577;SDS011;6354;51.026;8.968;2022-08-25T11:50:23;8.30;;;6.88;;
12577;SDS011;6354;51.026;8.968;2022-08-25T11:52:56;9.25;;;7.28;;
12577;SDS011;6354;51.026;8.968;2022-08-25T11:55:31;8.88;;;7.35;;
12577;SDS011;6354;51.026;8.968;2022-08-25T12:04:30;8.68;;;6.93;;
12577;SDS011;6354;51.026;8.968;2022-08-25T12:07:17;9.20;;;7.18;;
12577;SDS011;6354;51.026;8.968;2022-08-25T12:10:07;10.25;;;6.95;;
12577;SDS011;6354;51.026;8.968;2022-08-25T12:15:33;7.85;;;6.63;;
12577;SDS011;6354;51.026;8.968;2022-08-25T12:18:42;10.13;;;6.72;;
12577;SDS011;6354;51.026;8.968;2022-08-25T12:24:03;8.60;;;6.68;;
12577;SDS011;6354;51.026;8.968;2022-08-25T12:26:39;7.93;;;6.55;;
12577;SDS011;6354;51.026;8.968;2022-08-25T12:29:13;12.05;;;6.30;;
12577;SDS011;6354;51.026;8.968;2022-08-25T12:34:48;9.05;;;6.10;;
12577;SDS011;6354;51.026;8.968;2022-08-25T12:37:31;6.50;;;5.90;;
12577;SDS011;6354;51.026;8.968;2022-08-25T12:40:03;6.72;;;5.30;;
12577;SDS011;6354;51.026;8.968;2022-08-25T12:42:35;6.20;;;5.60;;
12577;SDS011;6354;51.026;8.968;2022-08-25T12:45:10;6.65;;;5.53;;
12577;SDS011;6354;51.026;8.968;2022-08-25T12:51:01;6.93;;;5.63;;
12577;SDS011;6354;51.026;8.968;2022-08-25T12:53:33;8.20;;;6.03;;
12577;SDS011;6354;51.026;8.968;2022-08-25T12:56:05;7.10;;;5.65;;
12577;SDS011;6354;51.026;8.968;2022-08-25T12:58:36;6.90;;;5.63;;
12577;SDS011;6354;51.026;8.968;2022-08-25T13:01:37;9.50;;;6.20;;
12577;SDS011;6354;51.026;8.968;2022-08-25T13:07:23;8.48;;;5.85;;
12577;SDS011;6354;51.026;8.968;2022-08-25T13:10:12;8.00;;;5.97;;
12577;SDS011;6354;51.026;8.968;2022-08-25T13:12:56;8.02;;;6.80;;
12577;SDS011;6354;51.026;8.968;2022-08-25T13:15:34;8.35;;;6.07;;
12577;SDS011;6354;51.026;8.968;2022-08-25T13:18:19;6.97;;;6.30;;
12577;SDS011;6354;51.026;8.968;2022-08-25T13:20:50;8.68;;;6.72;;
12577;SDS011;6354;51.026;8.968;2022-08-25T13:23:24;9.75;;;6.72;;
12577;SDS011;6354;51.026;8.968;2022-08-25T13:25:54;6.78;;;6.15;;
12577;SDS011;6354;51.026;8.968;2022-08-25T13:28:26;7.60;;;6.82;;
12577;SDS011;6354;51.026;8.968;2022-08-25T13:30:59;7.93;;;6.55;;
12577;SDS011;6354;51.026;8.968;2022-08-25T13:33:31;7.07;;;6.38;;
12577;SDS011;6354;51.026;8.968;2022-08-25T13:36:01;6.85;;;6.20;;
12577;SDS011;6354;51.026;8.968;2022-08-25T13:38:49;7.65;;;6.28;;
12577;SDS011;6354;51.026;8.968;2022-08-25T13:41:21;6.80;;;6.05;;
12577;SDS011;6354;51.026;8.968;2022-08-25T13:43:54;7.85;;;6.40;;
12577;SDS011;6354;51.026;8.968;2022-08-25T13:46:26;9.43;;;6.40;;
12577;SDS011;6354;51.026;8.968;2022-08-25T13:49:00;7.55;;;6.43;;
12577;SDS011;6354;51.026;8.968;2022-08-25T13:51:30;6.90;;;6.05;;
12577;SDS011;6354;51.026;8.968;2022-08-25T13:54:00;7.03;;;6.32;;
12577;SDS011;6354;51.026;8.968;2022-08-25T13:56:31;8.63;;;6.40;;
12577;SDS011;6354;51.026;8.968;2022-08-25T13:59:17;10.57;;;6.18;;
12577;SDS011;6354;51.026;8.968;2022-08-25T14:01:49;8.40;;;7.00;;
12577;SDS011;6354;51.026;8.968;2022-08-25T14:04:24;7.10;;;6.40;;
12577;SDS011;6354;51.026;8.968;2022-08-25T14:10:02;9.73;;;6.93;;
12577;SDS011;6354;51.026;8.968;2022-08-25T14:12:33;9.38;;;5.93;;
12577;SDS011;6354;51.026;8.968;2022-08-25T14:15:07;6.88;;;6.07;;
12577;SDS011;6354;51.026;8.968;2022-08-25T14:17:38;7.57;;;6.03;;
12577;SDS011;6354;51.026;8.968;2022-08-25T14:20:19;8.63;;;6.60;;
12577;SDS011;6354;51.026;8.968;2022-08-25T14:22:53;13.18;;;6.95;;
12577;SDS011;6354;51.026;8.968;2022-08-25T14:25:26;7.43;;;6.68;;
12577;SDS011;6354;51.026;8.968;2022-08-25T14:27:56;8.23;;;6.50;;
12577;SDS011;6354;51.026;8.968;2022-08-25T14:30:35;6.97;;;6.35;;
12577;SDS011;6354;51.026;8.968;2022-08-25T14:33:11;8.05;;;6.80;;
12577;SDS011;6354;51.026;8.968;2022-08-25T14:35:40;9.45;;;7.00;;
12577;SDS011;6354;51.026;8.968;2022-08-25T14:38:13;7.20;;;6.40;;
12577;SDS011;6354;51.026;8.968;2022-08-25T14:40:43;8.73;;;6.78;;
12577;SDS011;6354;51.026;8.968;2022-08-25T14:43:12;8.93;;;6.90;;
12577;SDS011;6354;51.026;8.968;2022-08-25T14:45:42;7.65;;;6.45;;
12577;SDS011;6354;51.026;8.968;2022-08-25T14:48:15;9.05;;;7.28;;
12577;SDS011;6354;51.026;8.968;2022-08-25T14:50:49;8.40;;;6.68;;
12577;SDS011;6354;51.026;8.968;2022-08-25T14:53:17;11.00;;;6.95;;
12577;SDS011;6354;51.026;8.968;2022-08-25T14:55:47;10.45;;;7.22;;
12577;SDS011;6354;51.026;8.968;2022-08-25T14:58:24;8.77;;;7.65;;
12577;SDS011;6354;51.026;8.968;2022-08-25T15:00:52;11.07;;;7.60;;
12577;SDS011;6354;51.026;8.968;2022-08-25T15:03:24;8.63;;;6.97;;
12577;SDS011;6354;51.026;8.968;2022-08-25T15:05:57;9.18;;;6.88;;
12577;SDS011;6354;51.026;8.968;2022-08-25T15:08:26;8.35;;;7.47;;
12577;SDS011;6354;51.026;8.968;2022-08-25T15:11:13;7.93;;;7.22;;
12577;SDS011;6354;51.026;8.968;2022-08-25T15:13:42;9.40;;;7.20;;
12577;SDS011;6354;51.026;8.968;2022-08-25T15:16:16;9.90;;;7.18;;
12577;SDS011;6354;51.026;8.968;2022-08-25T15:19:00;7.13;;;6.50;;
12577;SDS011;6354;51.026;8.968;2022-08-25T15:21:32;8.30;;;6.30;;
12577;SDS011;6354;51.026;8.968;2022-08-25T15:24:01;7.47;;;6.68;;
12577;SDS011;6354;51.026;8.968;2022-08-25T15:26:31;7.10;;;6.40;;
12577;SDS011;6354;51.026;8.968;2022-08-25T15:29:02;7.80;;;6.15;;
12577;SDS011;6354;51.026;8.968;2022-08-25T15:31:30;6.90;;;6.20;;
12577;SDS011;6354;51.026;8.968;2022-08-25T15:33:58;7.00;;;6.20;;
12577;SDS011;6354;51.026;8.968;2022-08-25T15:36:26;8.82;;;6.53;;
12577;SDS011;6354;51.026;8.968;2022-08-25T15:38:55;8.73;;;6.38;;
12577;SDS011;6354;51.026;8.968;2022-08-25T15:41:23;7.80;;;7.10;;
12577;SDS011;6354;51.026;8.968;2022-08-25T15:43:54;9.80;;;6.65;;
12577;SDS011;6354;51.026;8.968;2022-08-25T15:46:23;7.85;;;6.53;;
12577;SDS011;6354;51.026;8.968;2022-08-25T15:48:54;7.20;;;6.07;;
12577;SDS011;6354;51.026;8.968;2022-08-25T15:51:24;7.85;;;7.00;;
12577;SDS011;6354;51.026;8.968;2022-08-25T15:53:53;8.63;;;6.53;;
12577;SDS011;6354;51.026;8.968;2022-08-25T15:56:21;9.93;;;6.43;;
12577;SDS011;6354;51.026;8.968;2022-08-25T15:58:52;9.05;;;7.28;;